createdAt,value
2017-10-11T00:01:51.238Z,99896.39
2017-10-11T00:04:17.489Z,99896.06
2017-10-11T00:06:43.813Z,99895.69
2017-10-11T00:09:10.022Z,99894.67
2017-10-11T00:11:36.259Z,99897.29
2017-10-11T00:14:02.495Z,99894.91
2017-10-11T00:16:28.715Z,99886.52
2017-10-11T00:18:55.058Z,99888.75
2017-10-11T00:21:21.272Z,99889.61
2017-10-11T00:23:47.527Z,99892.97
2017-10-11T00:26:13.846Z,99892.11
2017-10-11T00:28:40.070Z,99891.26
2017-10-11T00:31:06.397Z,99888.61
2017-10-11T00:33:32.628Z,99881.28
2017-10-11T00:35:58.862Z,99889.73
2017-10-11T00:38:25.082Z,99892.92
2017-10-11T00:40:51.328Z,99890.14
2017-10-11T00:43:17.646Z,99891.28
2017-10-11T00:45:43.873Z,99889.44
2017-10-11T00:48:10.108Z,99888.22
2017-10-11T00:50:36.371Z,99887.73
2017-10-11T00:53:02.670Z,99884.41
2017-10-11T00:55:29.018Z,99885.89
2017-10-11T00:57:55.246Z,99885.70
2017-10-11T01:00:21.455Z,99884.03
2017-10-11T01:02:47.700Z,99883.82
2017-10-11T01:05:13.887Z,99879.37
2017-10-11T01:07:40.157Z,99878.34
2017-10-11T01:10:06.385Z,99882.53
2017-10-11T01:12:32.595Z,99878.91
2017-10-11T01:14:58.835Z,99877.99
2017-10-11T01:17:25.071Z,99881.31
2017-10-11T01:19:51.409Z,99881.66
2017-10-11T01:22:17.656Z,99886.06
2017-10-11T01:24:43.861Z,99885.11
2017-10-11T01:27:10.098Z,99888.02
2017-10-11T01:29:36.318Z,99887.59
2017-10-11T01:32:02.661Z,99888.97
2017-10-11T01:34:28.879Z,99904.63
2017-10-11T01:36:55.112Z,99896.90
2017-10-11T01:39:21.335Z,99896.56
2017-10-11T01:41:47.589Z,99903.87
2017-10-11T01:44:13.922Z,99902.50
2017-10-11T01:46:40.150Z,99893.62
2017-10-11T01:49:06.357Z,99892.44
2017-10-11T01:51:32.603Z,99900.39
2017-10-11T01:53:58.848Z,99902.81
2017-10-11T01:56:25.153Z,99900.85
2017-10-11T01:58:51.391Z,99899.97
2017-10-11T02:01:17.630Z,99896.56
2017-10-11T02:03:43.852Z,99898.22
2017-10-11T02:06:10.070Z,99900.41
2017-10-11T02:08:36.410Z,99900.84
2017-10-11T02:11:02.633Z,99902.09
2017-10-11T02:13:28.893Z,99903.98
2017-10-11T02:15:55.214Z,99898.61
2017-10-11T02:18:21.436Z,99906.16
2017-10-11T02:20:47.765Z,99915.70
2017-10-11T02:23:14.076Z,99912.63
2017-10-11T02:25:40.506Z,99913.37
2017-10-11T02:28:07.291Z,99915.46
2017-10-11T02:30:33.601Z,99914.63
2017-10-11T02:32:59.960Z,99915.50
2017-10-11T02:35:26.263Z,99916.92
2017-10-11T02:37:52.494Z,99921.81
2017-10-11T02:40:18.735Z,99918.22
2017-10-11T02:42:44.915Z,99927.83
2017-10-11T02:45:11.308Z,99929.71
2017-10-11T02:47:37.521Z,99930.91
2017-10-11T02:50:03.789Z,99928.56
2017-10-11T02:52:29.986Z,99935.98
2017-10-11T02:54:56.195Z,99932.87
2017-10-11T02:57:22.437Z,99931.13
2017-10-11T02:59:48.668Z,99937.52
2017-10-11T03:02:14.903Z,99935.91
2017-10-11T03:04:41.128Z,99928.63
2017-10-11T03:07:07.371Z,99928.22
2017-10-11T03:09:33.685Z,99920.36
2017-10-11T03:11:59.929Z,99921.36
2017-10-11T03:14:26.166Z,99928.28
2017-10-11T03:16:52.487Z,99926.72
2017-10-11T03:19:18.703Z,99925.61
2017-10-11T03:21:44.953Z,99925.13
2017-10-11T03:24:11.175Z,99926.05
2017-10-11T03:26:37.388Z,99932.80
2017-10-11T03:29:03.649Z,99931.11
2017-10-11T03:31:29.848Z,99928.99
2017-10-11T03:33:56.199Z,99933.88
2017-10-11T03:36:22.424Z,99929.89
2017-10-11T03:38:48.633Z,99936.73
2017-10-11T03:41:14.869Z,99935.56
2017-10-11T03:43:41.112Z,99938.47
2017-10-11T03:46:07.458Z,99936.96
2017-10-11T03:48:33.659Z,99937.03
2017-10-11T03:50:59.915Z,99944.81
2017-10-11T03:53:26.135Z,99936.97
2017-10-11T03:55:52.361Z,99937.72
2017-10-11T03:58:18.705Z,99936.66
2017-10-11T04:00:44.940Z,99940.44
2017-10-11T04:03:11.271Z,99943.88
2017-10-11T04:05:37.470Z,99947.48
2017-10-11T04:08:03.699Z,99944.45
2017-10-11T04:10:30.044Z,99945.17
2017-10-11T04:12:56.284Z,99948.91
2017-10-11T04:15:22.508Z,99958.05
2017-10-11T04:17:48.753Z,99958.98
2017-10-11T04:20:14.963Z,99959.85
2017-10-11T04:22:41.286Z,99970.80
2017-10-11T04:25:07.542Z,99978.27
2017-10-11T04:27:33.754Z,99975.73
2017-10-11T04:29:59.990Z,99977.08
2017-10-11T04:32:26.224Z,99977.97
2017-10-11T04:34:52.523Z,99980.03
2017-10-11T04:37:18.777Z,99981.69
2017-10-11T04:39:44.994Z,99978.33
2017-10-11T04:42:11.240Z,99982.83
2017-10-11T04:44:37.485Z,99986.72
2017-10-11T04:47:03.802Z,99992.97
2017-10-11T04:49:30.027Z,99994.28
2017-10-11T04:51:56.249Z,99999.93
2017-10-11T04:54:22.500Z,99995.64
2017-10-11T04:56:48.717Z,100002.78
2017-10-11T04:59:15.032Z,100001.75
2017-10-11T05:01:41.283Z,100010.25
2017-10-11T05:04:07.507Z,100016.72
2017-10-11T05:06:33.823Z,100014.09
2017-10-11T05:09:00.081Z,100018.12
2017-10-11T05:11:26.399Z,100024.23
2017-10-11T05:13:52.627Z,100019.44
2017-10-11T05:16:18.884Z,100028.22
2017-10-11T05:18:45.206Z,100019.97
2017-10-11T05:21:11.429Z,100015.97
2017-10-11T05:23:37.746Z,100026.98
2017-10-11T05:26:04.023Z,100029.94
2017-10-11T05:28:30.334Z,100025.22
2017-10-11T05:30:56.673Z,100024.03
2017-10-11T05:33:22.980Z,100024.63
2017-10-11T05:35:49.241Z,100020.19
2017-10-11T05:38:15.558Z,100026.20
2017-10-11T05:40:41.786Z,100032.73
2017-10-11T05:43:08.123Z,100030.80
2017-10-11T05:45:34.364Z,100033.30
2017-10-11T05:48:00.660Z,100030.66
2017-10-11T05:50:26.920Z,100038.54
2017-10-11T05:52:53.133Z,100036.81
2017-10-11T05:55:19.469Z,100041.07
2017-10-11T05:57:45.702Z,100042.86
2017-10-11T06:00:11.955Z,100037.77
2017-10-11T06:02:38.274Z,100041.05
2017-10-11T06:05:04.498Z,100045.78
2017-10-11T06:07:30.821Z,100042.66
2017-10-11T06:09:57.050Z,100039.81
2017-10-11T06:12:23.294Z,100040.84
2017-10-11T06:14:49.631Z,100038.05
2017-10-11T06:17:15.830Z,100040.50
2017-10-11T06:19:42.185Z,100044.52
2017-10-11T06:22:08.401Z,100043.86
2017-10-11T06:24:34.644Z,100040.30
2017-10-11T06:27:00.853Z,100038.72
2017-10-11T06:29:27.082Z,100042.08
2017-10-11T06:31:53.418Z,100048.38
2017-10-11T06:34:19.668Z,100051.77
2017-10-11T06:36:45.909Z,100049.22
2017-10-11T06:39:12.112Z,100053.42
2017-10-11T06:41:38.306Z,100048.00
2017-10-11T06:44:04.545Z,100044.30
2017-10-11T06:46:30.759Z,100042.22
2017-10-11T06:48:56.962Z,100042.31
2017-10-11T06:51:23.175Z,100044.09
2017-10-11T06:53:49.385Z,100047.09
2017-10-11T06:56:15.614Z,100049.71
2017-10-11T06:58:41.837Z,100044.37
2017-10-11T07:01:08.030Z,100046.77
2017-10-11T07:03:34.242Z,100046.02
2017-10-11T07:06:00.440Z,100042.16
2017-10-11T07:08:26.680Z,100045.99
2017-10-11T07:10:52.896Z,100050.70
2017-10-11T07:13:20.141Z,100056.53
2017-10-11T07:15:46.339Z,100046.59
2017-10-11T07:18:12.526Z,100054.05
2017-10-11T07:20:38.781Z,100053.75
2017-10-11T07:23:04.981Z,100053.62
2017-10-11T07:25:31.187Z,100052.69
2017-10-11T07:27:57.381Z,100054.37
2017-10-11T07:30:23.591Z,100046.23
2017-10-11T07:32:49.807Z,100054.06
2017-10-11T07:35:16.024Z,100055.36
2017-10-11T07:37:42.236Z,100051.27
2017-10-11T07:40:08.430Z,100053.59
2017-10-11T07:42:34.657Z,100059.75
2017-10-11T07:45:00.894Z,100053.89
2017-10-11T07:47:27.118Z,100063.95
2017-10-11T07:49:53.310Z,100062.88
2017-10-11T07:52:19.504Z,100059.12
2017-10-11T07:54:45.738Z,100058.97
2017-10-11T07:57:11.966Z,100058.21
2017-10-11T07:59:38.174Z,100064.82
2017-10-11T08:02:04.374Z,100061.22
2017-10-11T08:04:30.564Z,100061.02
2017-10-11T08:06:56.776Z,100055.97
2017-10-11T08:09:23.015Z,100061.33
2017-10-11T08:11:49.217Z,100052.02
2017-10-11T08:14:15.427Z,100059.24
2017-10-11T08:16:42.015Z,100055.25
2017-10-11T08:19:08.216Z,100051.77
2017-10-11T08:21:34.448Z,100052.59
2017-10-11T08:24:00.698Z,100058.70
2017-10-11T08:26:26.926Z,100051.27
2017-10-11T08:28:53.113Z,100046.28
2017-10-11T08:31:19.329Z,100047.30
2017-10-11T08:33:45.530Z,100045.76
2017-10-11T08:36:11.739Z,100046.07
2017-10-11T08:38:37.942Z,100042.35
2017-10-11T08:41:04.167Z,100035.52
2017-10-11T08:43:30.361Z,100034.80
2017-10-11T08:45:56.545Z,100039.86
2017-10-11T08:48:22.752Z,100041.80
2017-10-11T08:50:48.970Z,100044.41
2017-10-11T08:53:15.200Z,100043.27
2017-10-11T08:55:41.438Z,100045.52
2017-10-11T08:58:07.636Z,100037.09
2017-10-11T09:00:33.835Z,100036.19
2017-10-11T09:03:00.061Z,100034.20
2017-10-11T09:05:26.294Z,100034.27
2017-10-11T09:07:52.507Z,100030.46
2017-10-11T09:10:18.718Z,100029.45
2017-10-11T09:12:44.935Z,100034.62
2017-10-11T09:15:11.128Z,100028.86
2017-10-11T09:17:37.391Z,100029.55
2017-10-11T09:20:03.618Z,100032.54
2017-10-11T09:22:29.819Z,100037.73
2017-10-11T09:24:56.024Z,100031.47
2017-10-11T09:27:22.224Z,100031.31
2017-10-11T09:29:48.456Z,100031.39
2017-10-11T09:32:14.692Z,100026.95
2017-10-11T09:34:40.894Z,100029.92
2017-10-11T09:37:07.121Z,100023.52
2017-10-11T09:39:33.302Z,100021.14
2017-10-11T09:41:59.488Z,100023.45
2017-10-11T09:44:25.686Z,100014.13
2017-10-11T09:46:51.880Z,100014.02
2017-10-11T09:49:18.116Z,100012.44
2017-10-11T09:51:44.395Z,100008.38
2017-10-11T09:54:10.644Z,99999.13
2017-10-11T09:56:36.854Z,100002.05
2017-10-11T09:59:03.614Z,99995.24
2017-10-11T10:01:29.825Z,99996.13
2017-10-11T10:03:56.078Z,99988.23
2017-10-11T10:06:22.264Z,99984.31
2017-10-11T10:08:48.463Z,99983.72
2017-10-11T10:11:14.682Z,99983.92
2017-10-11T10:18:33.993Z,99977.27
2017-10-11T10:21:00.207Z,99978.55
2017-10-11T10:23:26.418Z,99971.91
2017-10-11T10:25:52.643Z,99975.41
2017-10-11T10:28:18.874Z,99973.49
2017-10-11T10:47:00.075Z,99946.52
2017-10-11T10:49:26.324Z,99942.32
2017-10-11T10:51:52.561Z,99937.11
2017-10-11T10:54:18.781Z,99935.71
2017-10-11T10:56:44.990Z,99937.97
2017-10-11T10:59:11.207Z,99934.28
2017-10-11T11:01:37.409Z,99930.36
2017-10-11T11:04:03.653Z,99928.84
2017-10-11T11:06:29.869Z,99926.81
2017-10-11T11:08:56.074Z,99924.64
2017-10-11T11:11:22.278Z,99922.91
2017-10-11T11:13:48.506Z,99922.29
2017-10-11T11:16:14.775Z,99918.05
2017-10-11T11:18:40.961Z,99913.09
2017-10-11T11:21:07.145Z,99911.95
2017-10-11T11:23:33.344Z,99918.00
2017-10-11T11:25:59.541Z,99908.58
2017-10-11T11:28:25.807Z,99906.25
2017-10-11T11:30:52.043Z,99906.55
2017-10-11T11:33:18.228Z,99901.41
2017-10-11T11:35:44.409Z,99898.17
2017-10-11T11:38:10.644Z,99910.72
2017-10-11T11:40:36.872Z,99904.06
2017-10-11T11:43:03.049Z,99897.47
2017-10-11T11:45:29.262Z,99900.28
2017-10-11T11:47:55.463Z,99901.40
2017-10-11T11:50:21.650Z,99887.45
2017-10-11T11:52:47.918Z,99887.09
2017-10-11T11:55:14.124Z,99891.97
2017-10-11T11:57:40.326Z,99886.16
2017-10-11T12:00:06.520Z,99892.04
2017-10-11T12:02:32.714Z,99888.05
2017-10-11T12:04:58.955Z,99892.81
2017-10-11T12:07:25.163Z,99892.63
2017-10-11T12:09:51.427Z,99891.58
2017-10-11T12:12:17.631Z,99885.38
2017-10-11T12:14:43.816Z,99883.94
2017-10-11T12:17:10.074Z,99874.91
2017-10-11T12:19:36.283Z,99881.72
2017-10-11T12:22:02.459Z,99880.34
2017-10-11T12:24:28.701Z,99878.78
2017-10-11T12:26:54.901Z,99878.84
2017-10-11T12:29:22.110Z,99874.48
2017-10-11T12:31:48.310Z,99868.28
2017-10-11T12:34:14.512Z,99870.75
2017-10-11T12:36:40.735Z,99863.27
2017-10-11T12:39:06.922Z,99860.79
2017-10-11T12:41:33.136Z,99863.28
2017-10-11T12:43:59.342Z,99861.64
2017-10-11T12:46:25.542Z,99860.77
2017-10-11T12:53:25.962Z,99852.81
2017-10-11T12:55:52.164Z,99855.02
2017-10-11T12:58:18.368Z,99851.03
2017-10-11T13:00:44.631Z,99851.11
2017-10-11T13:03:10.851Z,99847.58
2017-10-11T13:05:37.042Z,99851.69
2017-10-11T13:08:03.239Z,99854.92
2017-10-11T13:10:29.448Z,99852.94
2017-10-11T13:12:55.813Z,99850.52
2017-10-11T13:15:22.021Z,99853.22
2017-10-11T13:17:48.230Z,99854.14
2017-10-11T13:20:14.471Z,99855.23
2017-10-11T13:22:40.685Z,99849.42
2017-10-11T13:25:06.871Z,99851.20
2017-10-11T13:27:33.112Z,99856.45
2017-10-11T13:29:59.304Z,99841.66
2017-10-11T13:32:25.508Z,99845.94
2017-10-11T13:34:51.705Z,99844.97
2017-10-11T13:37:17.888Z,99842.55
2017-10-11T13:39:44.108Z,99837.54
2017-10-11T13:42:10.298Z,99838.88
2017-10-11T13:44:36.510Z,99835.77
2017-10-11T13:47:02.705Z,99840.28
2017-10-11T13:49:28.893Z,99840.23
2017-10-11T13:51:55.122Z,99839.45
2017-10-11T13:54:21.303Z,99843.78
2017-10-11T13:56:47.494Z,99844.44
2017-10-11T13:59:15.809Z,99845.83
2017-10-11T14:01:42.012Z,99850.50
2017-10-11T14:04:08.225Z,99851.28
2017-10-11T14:06:34.413Z,99855.33
2017-10-11T14:09:00.659Z,99853.77
2017-10-11T14:11:26.907Z,99853.08
2017-10-11T14:13:53.101Z,99852.99
2017-10-11T14:16:19.317Z,99854.95
2017-10-11T14:18:45.542Z,99857.69
2017-10-11T14:21:11.730Z,99858.13
2017-10-11T14:23:37.965Z,99852.52
2017-10-11T14:26:04.184Z,99856.91
2017-10-11T14:31:03.200Z,99853.70
2017-10-11T14:33:29.918Z,99854.16
2017-10-11T14:35:56.225Z,99856.84
2017-10-11T14:38:22.407Z,99866.17
2017-10-11T14:40:48.594Z,99866.28
2017-10-11T14:43:14.795Z,99858.69
2017-10-11T14:45:41.792Z,99866.94
2017-10-11T14:48:08.026Z,99862.31
2017-10-11T14:50:34.240Z,99862.16
2017-10-11T14:53:00.538Z,99863.23
2017-10-11T14:55:26.859Z,99861.57
2017-10-11T14:57:53.098Z,99863.78
2017-10-11T15:00:19.327Z,99861.01
2017-10-11T15:02:45.592Z,99865.30
2017-10-11T15:05:11.891Z,99862.73
2017-10-11T15:07:38.253Z,99866.89
2017-10-11T15:10:04.606Z,99868.02
2017-10-11T15:12:30.894Z,99868.42
2017-10-11T15:14:57.127Z,99874.38
2017-10-11T15:17:23.448Z,99872.78
2017-10-11T15:19:49.703Z,99879.41
2017-10-11T15:22:16.037Z,99876.62
2017-10-11T15:24:42.210Z,99879.20
2017-10-11T15:27:08.478Z,99882.35
2017-10-11T15:29:34.674Z,99878.56
2017-10-11T15:32:00.912Z,99884.58
2017-10-11T15:34:27.159Z,99889.31
2017-10-11T15:36:53.520Z,99886.28
2017-10-11T15:39:19.861Z,99890.63
2017-10-11T15:41:46.170Z,99889.14
2017-10-11T15:44:12.475Z,99889.84
2017-10-11T15:46:38.679Z,99898.39
2017-10-11T15:49:04.950Z,99896.38
2017-10-11T15:51:32.722Z,99898.72
2017-10-11T15:53:59.085Z,99905.04
2017-10-11T15:56:25.378Z,99902.58
2017-10-11T15:58:51.587Z,99909.39
2017-10-11T16:01:17.804Z,99905.53
2017-10-11T16:03:44.019Z,99907.48
2017-10-11T16:06:10.221Z,99905.77
2017-10-11T16:08:36.517Z,99912.64
2017-10-11T16:11:02.749Z,99911.38
2017-10-11T16:13:28.961Z,99920.02
2017-10-11T16:15:55.182Z,99922.23
2017-10-11T16:18:21.411Z,99914.30
2017-10-11T16:20:47.651Z,99927.23
2017-10-11T16:23:13.840Z,99927.28
2017-10-11T16:25:40.052Z,99929.44
2017-10-11T16:28:06.260Z,99935.55
2017-10-11T16:30:32.458Z,99935.30
2017-10-11T16:32:58.683Z,99935.55
2017-10-11T16:35:24.916Z,99929.06
2017-10-11T16:37:51.117Z,99930.84
2017-10-11T16:40:17.333Z,99933.99
2017-10-11T16:42:43.522Z,99936.33
2017-10-11T16:45:09.781Z,99938.27
2017-10-11T16:47:35.994Z,99945.33
2017-10-11T16:50:02.172Z,99938.14
2017-10-11T16:52:28.359Z,99943.09
2017-10-11T16:54:54.560Z,99938.30
2017-10-11T16:57:20.825Z,99941.17
2017-10-11T16:59:47.025Z,99949.21
2017-10-11T17:02:13.242Z,99944.25
2017-10-11T17:04:39.450Z,99944.11
2017-10-11T17:07:05.643Z,99945.50
2017-10-11T17:09:31.871Z,99953.04
2017-10-11T17:11:58.081Z,99949.39
2017-10-11T17:14:24.281Z,99961.81
2017-10-11T17:16:50.473Z,99960.17
2017-10-11T17:19:16.711Z,99961.40
2017-10-11T17:21:42.984Z,99962.45
2017-10-11T17:24:09.192Z,99958.58
2017-10-11T17:26:35.383Z,99961.38
2017-10-11T17:29:01.644Z,99964.20
2017-10-11T17:31:27.876Z,99964.75
2017-10-11T17:33:54.285Z,99965.86
2017-10-11T17:36:20.495Z,99974.38
2017-10-11T17:38:46.688Z,99970.13
2017-10-11T17:41:12.963Z,99976.23
2017-10-11T17:43:40.771Z,99977.80
2017-10-11T17:46:06.990Z,99971.30
2017-10-11T17:48:33.210Z,99976.14
2017-10-11T17:50:59.422Z,99981.52
2017-10-11T17:53:25.723Z,99978.31
2017-10-11T17:55:51.907Z,99983.98
2017-10-11T17:58:18.111Z,99982.12
2017-10-11T18:00:44.308Z,99994.60
2017-10-11T18:03:10.510Z,99994.93
2017-10-11T18:05:36.838Z,99991.48
2017-10-11T18:08:03.045Z,99996.55
2017-10-11T18:10:29.268Z,99995.57
2017-10-11T18:12:55.483Z,99994.58
2017-10-11T18:15:21.711Z,99991.31
2017-10-11T18:17:47.960Z,99991.83
2017-10-11T18:20:14.200Z,99988.77
2017-10-11T18:22:40.423Z,99996.58
2017-10-11T18:25:06.650Z,99991.54
2017-10-11T18:27:32.863Z,99995.09
2017-10-11T18:29:59.080Z,99994.17
2017-10-11T18:32:25.292Z,99999.20
2017-10-11T18:34:51.528Z,99995.36
2017-10-11T18:37:17.770Z,100000.42
2017-10-11T18:39:44.034Z,99999.22
2017-10-11T18:42:10.243Z,100004.14
2017-10-11T18:44:36.454Z,100004.46
2017-10-11T18:47:02.668Z,100006.86
2017-10-11T18:49:28.948Z,100006.87
2017-10-11T18:51:55.181Z,100005.70
2017-10-11T18:54:21.380Z,100009.86
2017-10-11T18:56:47.682Z,100004.87
2017-10-11T18:59:13.902Z,100016.01
2017-10-11T19:01:40.151Z,100010.22
2017-10-11T19:04:06.380Z,100021.25
2017-10-11T19:06:32.591Z,100015.70
2017-10-11T19:08:58.792Z,100018.98
2017-10-11T19:11:25.017Z,100018.21
2017-10-11T19:13:51.240Z,100020.08
2017-10-11T19:16:17.463Z,100022.92
2017-10-11T19:18:43.682Z,100025.34
2017-10-11T19:21:09.882Z,100021.33
2017-10-11T19:23:36.124Z,100029.45
2017-10-11T19:26:02.376Z,100023.87
2017-10-11T19:28:28.580Z,100023.84
2017-10-11T19:30:54.773Z,100023.53
2017-10-11T19:33:20.978Z,100028.97
2017-10-11T19:35:47.187Z,100031.24
2017-10-11T19:38:13.430Z,100026.24
2017-10-11T19:40:39.656Z,100028.66
2017-10-11T19:43:05.886Z,100026.03
2017-10-11T19:45:32.137Z,100026.53
2017-10-11T19:47:58.350Z,100028.05
2017-10-11T19:50:24.573Z,100026.73
2017-10-11T19:52:50.785Z,100022.23
2017-10-11T19:55:16.984Z,100024.05
2017-10-11T19:57:43.193Z,100021.16
2017-10-11T20:00:09.406Z,100020.83
2017-10-11T20:02:35.611Z,100021.80
2017-10-11T20:05:01.854Z,100017.09
2017-10-11T20:07:28.070Z,100016.62
2017-10-11T20:09:54.259Z,100016.62
2017-10-11T20:12:20.519Z,100018.29
2017-10-11T20:14:46.723Z,100019.47
2017-10-11T20:17:13.004Z,100013.77
2017-10-11T20:19:39.242Z,100017.61
2017-10-11T20:22:05.555Z,100012.50
2017-10-11T20:24:31.906Z,100017.59
2017-10-11T20:26:58.251Z,100021.59
2017-10-11T20:29:24.559Z,100016.98
2017-10-11T20:31:50.965Z,100015.25
2017-10-11T20:34:17.507Z,100025.25
2017-10-11T20:36:44.218Z,100022.44
2017-10-11T20:39:10.891Z,100028.92
2017-10-11T20:41:37.243Z,100023.66
2017-10-11T20:44:03.533Z,100019.81
2017-10-11T20:46:29.776Z,100025.41
2017-10-11T20:48:56.110Z,100025.58
2017-10-11T20:51:22.438Z,100022.38
2017-10-11T20:53:48.699Z,100024.63
2017-10-11T20:56:15.015Z,100024.91
2017-10-11T20:58:41.251Z,100023.20
2017-10-11T21:01:07.573Z,100025.77
2017-10-11T21:03:33.936Z,100025.77
2017-10-11T21:06:00.254Z,100026.74
2017-10-11T21:08:26.565Z,100031.27
2017-10-11T21:10:52.806Z,100025.34
2017-10-11T21:13:19.030Z,100022.27
2017-10-11T21:15:45.339Z,100027.45
2017-10-11T21:24:55.442Z,100035.56
2017-10-11T21:27:21.641Z,100024.73
2017-10-11T21:29:47.931Z,100027.86
2017-10-11T21:32:14.236Z,100029.34
2017-10-11T21:34:40.504Z,100028.31
2017-10-11T21:37:06.813Z,100025.22
2017-10-11T21:39:33.024Z,100022.41
2017-10-11T21:41:59.264Z,100020.59
2017-10-11T21:44:25.502Z,100018.14
2017-10-11T21:46:51.715Z,100025.80
2017-10-11T21:49:17.976Z,100021.24
2017-10-11T21:51:44.313Z,100023.94
2017-10-11T21:54:10.617Z,100025.49
2017-10-11T21:56:36.863Z,100026.30
2017-10-11T21:59:03.177Z,100031.11
2017-10-11T22:01:29.403Z,100033.03
2017-10-11T22:03:55.650Z,100027.34
2017-10-11T22:06:21.888Z,100035.30
2017-10-11T22:08:48.091Z,100030.26
2017-10-11T22:11:14.450Z,100034.20
2017-10-11T22:13:40.775Z,100035.95
2017-10-11T22:16:07.004Z,100034.58
2017-10-11T22:18:33.218Z,100037.33
2017-10-11T22:20:59.464Z,100033.63
2017-10-11T22:23:25.692Z,100033.83
2017-10-11T22:25:51.908Z,100028.42
2017-10-11T22:28:18.269Z,100024.91
2017-10-11T22:30:44.589Z,100023.53
2017-10-11T22:33:10.795Z,100029.80
2017-10-11T22:35:37.023Z,100029.16
2017-10-11T22:38:03.257Z,100020.13
2017-10-11T22:40:29.509Z,100025.83
2017-10-11T22:42:55.831Z,100022.66
2017-10-11T22:45:22.057Z,100024.55
2017-10-11T22:47:48.282Z,100025.79
2017-10-11T22:50:14.505Z,100021.40
2017-10-11T22:52:40.735Z,100030.71
2017-10-11T22:55:07.032Z,100032.16
2017-10-11T22:57:33.309Z,100034.34
2017-10-11T22:59:59.544Z,100032.61
2017-10-11T23:02:25.744Z,100030.92
2017-10-11T23:04:51.999Z,100032.61
2017-10-11T23:07:18.235Z,100029.27
2017-10-11T23:09:44.431Z,100037.63
2017-10-11T23:12:10.697Z,100035.55
2017-10-11T23:14:36.908Z,100036.91
2017-10-11T23:17:03.136Z,100030.95
2017-10-11T23:19:29.366Z,100037.49
2017-10-11T23:21:55.592Z,100037.05
2017-10-11T23:24:21.824Z,100036.78
2017-10-11T23:26:48.065Z,100033.81
2017-10-11T23:29:14.288Z,100025.21
2017-10-11T23:31:40.524Z,100028.91
2017-10-11T23:34:06.761Z,100027.53
2017-10-11T23:36:32.988Z,100027.45
2017-10-11T23:38:59.224Z,100025.63
2017-10-11T23:41:25.426Z,100019.16
2017-10-11T23:43:51.669Z,100022.23
2017-10-11T23:46:17.900Z,100022.38
2017-10-11T23:48:44.120Z,100021.77
2017-10-11T23:51:10.349Z,100018.93
2017-10-11T23:53:36.593Z,100019.48
2017-10-11T23:56:02.918Z,100013.22
2017-10-11T23:58:29.162Z,100010.64
